createdAt,value
2019-05-18T00:00:34.603Z,94481.45
2019-05-18T00:03:03.283Z,94487.20
2019-05-18T00:05:32.137Z,94483.16
2019-05-18T00:08:00.640Z,94481.17
2019-05-18T00:10:29.187Z,94480.56
2019-05-18T00:12:57.835Z,94480.61
2019-05-18T00:15:26.508Z,94484.57
2019-05-18T00:17:55.094Z,94481.93
2019-05-18T00:20:23.671Z,94481.20
2019-05-18T00:22:52.354Z,94482.57
2019-05-18T00:25:21.000Z,94490.69
2019-05-18T00:27:49.573Z,94486.48
2019-05-18T00:30:18.390Z,94483.70
2019-05-18T00:32:47.036Z,94484.26
2019-05-18T00:35:16.756Z,94481.47
2019-05-18T00:37:45.555Z,94483.30
2019-05-18T00:40:14.394Z,94481.73
2019-05-18T00:42:42.947Z,94482.02
2019-05-18T00:45:11.898Z,94481.48
2019-05-18T00:47:42.103Z,94472.78
2019-05-18T00:50:11.410Z,94478.32
2019-05-18T00:52:39.922Z,94478.38
2019-05-18T00:55:08.966Z,94481.81
2019-05-18T00:57:37.644Z,94482.13
2019-05-18T01:00:08.353Z,94482.13
2019-05-18T01:02:36.923Z,94475.68
2019-05-18T01:05:08.800Z,94476.77
2019-05-18T01:07:37.455Z,94471.47
2019-05-18T01:10:07.718Z,94470.36
2019-05-18T01:12:36.368Z,94466.79
2019-05-18T01:15:06.921Z,94467.19
2019-05-18T01:17:35.569Z,94456.30
2019-05-18T01:20:05.945Z,94455.88
2019-05-18T01:22:34.741Z,94458.06
2019-05-18T01:25:03.399Z,94460.89
2019-05-18T01:27:31.939Z,94456.51
2019-05-18T01:30:00.506Z,94460.05
2019-05-18T01:32:29.603Z,94466.00
2019-05-18T01:34:58.273Z,94457.94
2019-05-18T01:37:26.773Z,94463.34
2019-05-18T01:39:55.283Z,94449.06
2019-05-18T01:42:23.952Z,94450.31
2019-05-18T01:44:52.586Z,94434.40
2019-05-18T01:47:21.088Z,94440.53
2019-05-18T01:49:49.645Z,94442.74
2019-05-18T01:52:18.288Z,94443.27
2019-05-18T01:54:46.933Z,94445.02
2019-05-18T01:57:15.475Z,94441.85
2019-05-18T01:59:44.113Z,94446.72
2019-05-18T02:02:12.751Z,94441.85
2019-05-18T02:04:41.497Z,94438.81
2019-05-18T02:07:10.161Z,94438.66
2019-05-18T02:09:38.658Z,94434.55
2019-05-18T02:12:07.354Z,94429.06
2019-05-18T02:14:36.008Z,94423.27
2019-05-18T02:17:04.770Z,94425.87
2019-05-18T02:19:33.355Z,94426.97
2019-05-18T02:22:01.994Z,94419.58
2019-05-18T02:24:30.636Z,94419.27
2019-05-18T02:26:59.277Z,94422.36
2019-05-18T02:29:27.843Z,94420.77
2019-05-18T02:31:56.596Z,94424.12
2019-05-18T02:34:25.141Z,94429.52
2019-05-18T02:36:53.771Z,94424.14
2019-05-18T02:39:22.405Z,94428.03
2019-05-18T02:41:50.952Z,94436.37
2019-05-18T02:44:19.457Z,94430.13
2019-05-18T02:46:48.102Z,94434.23
2019-05-18T02:49:16.879Z,94430.28
2019-05-18T02:51:45.446Z,94434.66
2019-05-18T02:54:14.089Z,94421.23
2019-05-18T02:56:42.765Z,94419.39
2019-05-18T02:59:11.400Z,94419.55
2019-05-18T03:01:40.041Z,94419.70
2019-05-18T03:04:08.649Z,94418.26
2019-05-18T03:06:37.297Z,94423.17
2019-05-18T03:09:06.932Z,94434.25
2019-05-18T03:11:35.903Z,94424.92
2019-05-18T03:14:04.948Z,94431.66
2019-05-18T03:16:33.975Z,94438.31
2019-05-18T03:19:08.034Z,94436.41
2019-05-18T03:21:33.767Z,94431.97
2019-05-18T03:24:02.417Z,94429.67
2019-05-18T03:26:31.058Z,94430.86
2019-05-18T03:28:59.663Z,94437.64
2019-05-18T03:31:28.314Z,94444.49
2019-05-18T03:33:56.986Z,94450.13
2019-05-18T03:36:25.471Z,94449.33
2019-05-18T03:38:54.151Z,94452.81
2019-05-18T03:41:22.836Z,94450.69
2019-05-18T03:43:51.476Z,94457.50
2019-05-18T03:46:23.823Z,94452.34
2019-05-18T03:48:50.315Z,94448.91
2019-05-18T03:51:18.950Z,94458.69
2019-05-18T03:53:47.479Z,94458.73
2019-05-18T03:56:16.160Z,94457.63
2019-05-18T03:58:44.804Z,94460.97
2019-05-18T04:01:13.321Z,94470.45
2019-05-18T04:03:41.905Z,94462.88
2019-05-18T04:06:10.557Z,94467.87
2019-05-18T04:08:39.205Z,94465.81
2019-05-18T04:11:07.973Z,94470.72
2019-05-18T04:13:36.547Z,94467.52
2019-05-18T04:16:05.194Z,94470.25
2019-05-18T04:18:33.877Z,94467.93
2019-05-18T04:21:05.430Z,94464.88
2019-05-18T04:23:34.003Z,94473.33
2019-05-18T04:26:02.703Z,94472.52
2019-05-18T04:28:31.433Z,94466.71
2019-05-18T04:31:00.008Z,94473.63
2019-05-18T04:33:28.699Z,94472.88
2019-05-18T04:35:57.272Z,94473.73
2019-05-18T04:38:25.772Z,94471.81
2019-05-18T04:40:54.466Z,94468.70
2019-05-18T04:43:23.132Z,94468.14
2019-05-18T04:45:51.696Z,94479.34
2019-05-18T04:48:20.235Z,94478.72
2019-05-18T04:50:48.879Z,94480.24
2019-05-18T04:53:17.572Z,94484.02
2019-05-18T04:55:46.307Z,94478.72
2019-05-18T04:58:14.924Z,94486.84
2019-05-18T05:00:43.621Z,94484.51
2019-05-18T05:03:12.298Z,94492.52
2019-05-18T05:05:40.797Z,94479.89
2019-05-18T05:08:09.295Z,94482.62
2019-05-18T05:10:37.969Z,94486.78
2019-05-18T05:13:06.612Z,94491.05
2019-05-18T05:15:35.252Z,94490.55
2019-05-18T05:18:03.940Z,94491.88
2019-05-18T05:20:32.444Z,94492.05
2019-05-18T05:23:00.947Z,94496.16
2019-05-18T05:25:29.645Z,94498.11
2019-05-18T05:27:58.364Z,94500.29
2019-05-18T05:30:26.871Z,94495.41
2019-05-18T05:32:55.479Z,94498.91
2019-05-18T05:35:24.135Z,94499.03
2019-05-18T05:37:52.777Z,94500.92
2019-05-18T05:40:21.423Z,94505.18
2019-05-18T05:42:49.957Z,94498.37
2019-05-18T05:45:18.568Z,94502.70
2019-05-18T05:47:47.258Z,94504.06
2019-05-18T05:50:16.015Z,94512.13
2019-05-18T05:52:44.663Z,94501.84
2019-05-18T05:55:13.478Z,94503.08
2019-05-18T05:57:41.982Z,94510.53
2019-05-18T06:00:11.098Z,94511.02
2019-05-18T06:02:39.835Z,94519.70
2019-05-18T06:05:08.976Z,94515.25
2019-05-18T06:07:37.542Z,94515.61
2019-05-18T06:10:07.614Z,94512.55
2019-05-18T06:12:36.273Z,94509.50
2019-05-18T06:15:07.988Z,94509.70
2019-05-18T06:17:36.603Z,94507.56
2019-05-18T06:20:09.176Z,94516.84
2019-05-18T06:22:37.817Z,94512.63
2019-05-18T06:25:08.178Z,94506.50
2019-05-18T06:27:36.891Z,94505.49
2019-05-18T06:30:07.324Z,94515.89
2019-05-18T06:32:35.923Z,94515.44
2019-05-18T06:35:05.066Z,94519.27
2019-05-18T06:37:33.702Z,94512.80
2019-05-18T06:40:02.380Z,94514.38
2019-05-18T06:42:30.973Z,94514.06
2019-05-18T06:44:59.614Z,94519.66
2019-05-18T06:47:28.503Z,94514.88
2019-05-18T06:49:57.210Z,94511.13
2019-05-18T06:52:25.881Z,94503.20
2019-05-18T06:54:54.563Z,94506.52
2019-05-18T06:57:25.296Z,94497.98
2019-05-18T06:59:54.670Z,94503.16
2019-05-18T07:02:23.187Z,94497.06
2019-05-18T07:04:52.208Z,94503.14
2019-05-18T07:07:20.982Z,94505.24
2019-05-18T07:09:49.552Z,94498.63
2019-05-18T07:12:18.060Z,94502.12
2019-05-18T07:14:46.698Z,94500.90
2019-05-18T07:17:15.382Z,94496.77
2019-05-18T07:19:43.886Z,94490.55
2019-05-18T07:22:12.520Z,94493.38
2019-05-18T07:24:41.197Z,94493.53
2019-05-18T07:27:09.841Z,94493.89
2019-05-18T07:29:38.346Z,94492.41
2019-05-18T07:32:08.024Z,94486.53
2019-05-18T07:34:36.658Z,94489.02
2019-05-18T07:37:05.398Z,94484.80
2019-05-18T07:39:36.169Z,94487.44
2019-05-18T07:42:04.526Z,94473.19
2019-05-18T07:44:33.175Z,94481.13
2019-05-18T07:47:01.907Z,94478.57
2019-05-18T07:49:30.512Z,94480.56
2019-05-18T07:51:59.094Z,94479.39
2019-05-18T07:54:27.634Z,94480.47
2019-05-18T07:56:56.292Z,94465.75
2019-05-18T07:59:24.929Z,94466.91
2019-05-18T08:01:53.539Z,94468.45
2019-05-18T08:04:22.108Z,94476.11
2019-05-18T08:06:51.937Z,94474.79
2019-05-18T08:09:20.626Z,94475.16
2019-05-18T08:11:49.193Z,94478.94
2019-05-18T08:14:17.695Z,94483.25
2019-05-18T08:16:46.307Z,94472.06
2019-05-18T08:19:15.139Z,94465.50
2019-05-18T08:21:52.637Z,94473.02
2019-05-18T08:24:13.980Z,94468.02
2019-05-18T08:26:42.568Z,94472.75
2019-05-18T08:29:11.164Z,94464.07
2019-05-18T08:31:39.729Z,94463.81
2019-05-18T08:34:08.395Z,94460.92
2019-05-18T08:36:37.584Z,94466.26
2019-05-18T08:39:06.705Z,94465.10
2019-05-18T08:41:35.294Z,94460.56
2019-05-18T08:44:03.959Z,94454.77
2019-05-18T08:46:32.600Z,94441.20
2019-05-18T08:49:01.251Z,94447.58
2019-05-18T08:51:29.878Z,94454.75
2019-05-18T08:53:58.514Z,94442.83
2019-05-18T08:56:27.078Z,94444.09
2019-05-18T08:58:55.612Z,94443.00
2019-05-18T09:01:24.183Z,94450.20
2019-05-18T09:03:52.816Z,94451.79
2019-05-18T09:06:21.489Z,94450.39
2019-05-18T09:08:50.383Z,94450.35
2019-05-18T09:11:18.946Z,94436.91
2019-05-18T09:13:47.501Z,94438.57
2019-05-18T09:16:16.139Z,94443.80
2019-05-18T09:18:44.776Z,94439.80
2019-05-18T09:21:13.447Z,94439.86
2019-05-18T09:23:42.020Z,94423.06
2019-05-18T09:26:10.590Z,94424.13
2019-05-18T09:28:39.339Z,94419.89
2019-05-18T09:31:08.015Z,94420.16
2019-05-18T09:33:36.630Z,94414.56
2019-05-18T09:36:05.408Z,94411.12
2019-05-18T09:38:34.053Z,94400.34
2019-05-18T09:41:02.716Z,94395.52
2019-05-18T09:43:31.257Z,94393.73
2019-05-18T09:45:59.821Z,94396.44
2019-05-18T09:48:28.393Z,94393.59
2019-05-18T09:50:56.995Z,94389.19
2019-05-18T09:53:25.639Z,94395.64
2019-05-18T09:55:54.203Z,94388.38
2019-05-18T09:58:22.975Z,94386.48
2019-05-18T10:00:51.546Z,94385.70
2019-05-18T10:03:20.378Z,94382.37
2019-05-18T10:05:49.064Z,94372.47
2019-05-18T10:08:17.560Z,94372.12
2019-05-18T10:10:46.401Z,94369.70
2019-05-18T10:13:15.086Z,94373.61
2019-05-18T10:15:43.657Z,94365.81
2019-05-18T10:18:12.158Z,94361.87
2019-05-18T10:20:40.835Z,94365.31
2019-05-18T10:23:13.730Z,94367.33
2019-05-18T10:25:39.797Z,94359.52
2019-05-18T10:28:08.509Z,94356.90
2019-05-18T10:30:37.209Z,94358.53
2019-05-18T10:33:05.851Z,94356.89
2019-05-18T10:35:34.444Z,94354.73
2019-05-18T10:38:03.080Z,94354.14
2019-05-18T10:40:31.718Z,94354.05
2019-05-18T10:43:00.248Z,94349.66
2019-05-18T10:45:28.884Z,94346.91
2019-05-18T10:47:57.804Z,94341.17
2019-05-18T10:50:26.444Z,94343.45
2019-05-18T10:52:54.944Z,94334.12
2019-05-18T10:55:23.633Z,94336.29
2019-05-18T10:57:52.324Z,94334.50
2019-05-18T11:00:21.319Z,94330.31
2019-05-18T11:02:50.083Z,94329.20
2019-05-18T11:05:19.115Z,94327.13
2019-05-18T11:07:47.694Z,94317.08
2019-05-18T11:10:18.100Z,94322.91
2019-05-18T11:12:46.859Z,94327.92
2019-05-18T11:15:15.840Z,94311.53
2019-05-18T11:17:44.396Z,94318.72
2019-05-18T11:20:14.708Z,94309.17
2019-05-18T11:22:43.478Z,94306.30
2019-05-18T11:25:12.404Z,94302.56
2019-05-18T11:27:41.008Z,94301.97
2019-05-18T11:30:10.672Z,94302.13
2019-05-18T11:32:39.347Z,94300.83
2019-05-18T11:35:09.006Z,94295.72
2019-05-18T11:37:37.499Z,94294.09
2019-05-18T11:40:07.427Z,94290.59
2019-05-18T11:42:36.329Z,94287.33
2019-05-18T11:45:10.034Z,94284.03
2019-05-18T11:47:38.722Z,94275.91
2019-05-18T11:50:09.565Z,94270.48
2019-05-18T11:52:38.194Z,94272.00
2019-05-18T11:55:07.562Z,94267.47
2019-05-18T11:57:36.236Z,94260.23
2019-05-18T12:00:07.749Z,94267.55
2019-05-18T12:02:36.351Z,94260.44
2019-05-18T12:05:06.876Z,94261.72
2019-05-18T12:07:35.512Z,94255.11
2019-05-18T12:10:06.246Z,94252.84
2019-05-18T12:12:34.786Z,94247.91
2019-05-18T12:15:04.314Z,94250.22
2019-05-18T12:17:33.020Z,94244.25
2019-05-18T12:20:01.620Z,94247.27
2019-05-18T12:22:30.104Z,94235.72
2019-05-18T12:24:58.660Z,94245.27
2019-05-18T12:27:27.294Z,94237.27
2019-05-18T12:29:55.851Z,94231.15
2019-05-18T12:32:24.598Z,94229.35
2019-05-18T12:34:53.160Z,94220.62
2019-05-18T12:37:22.865Z,94214.87
2019-05-18T12:39:53.440Z,94217.34
2019-05-18T12:42:22.460Z,94205.02
2019-05-18T12:44:51.097Z,94205.38
2019-05-18T12:47:19.876Z,94202.34
2019-05-18T12:49:48.584Z,94197.72
2019-05-18T12:52:17.080Z,94198.69
2019-05-18T12:54:47.092Z,94195.61
2019-05-18T12:57:15.952Z,94193.37
2019-05-18T12:59:44.515Z,94185.54
2019-05-18T13:02:13.231Z,94185.54
2019-05-18T13:04:42.142Z,94191.53
2019-05-18T13:07:10.797Z,94194.00
2019-05-18T13:09:39.424Z,94185.05
2019-05-18T13:12:11.561Z,94187.92
2019-05-18T13:14:38.614Z,94187.21
2019-05-18T13:17:07.213Z,94180.88
2019-05-18T13:19:35.773Z,94178.72
2019-05-18T13:22:04.474Z,94175.66
2019-05-18T13:24:44.856Z,94176.33
2019-05-18T13:27:03.423Z,94172.70
2019-05-18T13:29:32.159Z,94172.70
2019-05-18T13:32:00.842Z,94166.66
2019-05-18T13:34:29.405Z,94163.30
2019-05-18T13:36:57.920Z,94161.89
2019-05-18T13:39:26.587Z,94156.31
2019-05-18T13:41:55.288Z,94158.47
2019-05-18T13:44:23.853Z,94154.91
2019-05-18T13:46:52.467Z,94155.72
2019-05-18T13:49:21.027Z,94163.14
2019-05-18T13:51:49.520Z,94157.81
2019-05-18T13:54:18.137Z,94153.30
2019-05-18T13:56:46.761Z,94147.30
2019-05-18T13:59:15.397Z,94149.97
2019-05-18T14:01:43.941Z,94144.00
2019-05-18T14:04:12.513Z,94142.27
2019-05-18T14:06:41.147Z,94148.20
2019-05-18T14:09:09.741Z,94138.69
2019-05-18T14:11:38.317Z,94140.68
2019-05-18T14:14:06.892Z,94127.94
2019-05-18T14:16:35.805Z,94136.54
2019-05-18T14:19:04.438Z,94131.55
2019-05-18T14:21:33.073Z,94135.51
2019-05-18T14:24:01.679Z,94135.80
2019-05-18T14:26:30.307Z,94136.03
2019-05-18T14:28:58.870Z,94134.41
2019-05-18T14:31:27.540Z,94136.18
2019-05-18T14:33:56.210Z,94139.80
2019-05-18T14:36:24.723Z,94135.29
2019-05-18T14:38:56.862Z,94118.30
2019-05-18T14:41:23.746Z,94118.30
2019-05-18T14:43:52.390Z,94131.22
2019-05-18T14:46:21.086Z,94135.15
2019-05-18T14:48:49.655Z,94128.80
2019-05-18T14:51:18.297Z,94129.64
2019-05-18T14:53:46.958Z,94133.45
2019-05-18T14:56:15.482Z,94133.39
2019-05-18T14:58:44.034Z,94137.72
2019-05-18T15:01:12.705Z,94123.87
2019-05-18T15:03:41.324Z,94127.33
2019-05-18T15:06:09.958Z,94118.38
2019-05-18T15:08:38.647Z,94112.20
2019-05-18T15:11:07.446Z,94112.52
2019-05-18T15:13:36.022Z,94109.95
2019-05-18T15:16:04.679Z,94111.36
2019-05-18T15:18:33.241Z,94103.00
2019-05-18T15:21:01.741Z,94114.25
2019-05-18T15:23:30.417Z,94118.37
2019-05-18T15:25:59.032Z,94108.96
2019-05-18T15:28:27.701Z,94104.25
2019-05-18T15:30:56.291Z,94104.66
2019-05-18T15:33:24.935Z,94109.52
2019-05-18T15:35:53.566Z,94110.52
2019-05-18T15:38:22.299Z,94110.14
2019-05-18T15:40:50.792Z,94115.28
2019-05-18T15:43:19.435Z,94116.45
2019-05-18T15:45:48.132Z,94118.55
2019-05-18T15:48:16.776Z,94116.45
2019-05-18T15:50:45.410Z,94125.73
2019-05-18T15:53:14.012Z,94120.88
2019-05-18T15:55:42.729Z,94123.02
2019-05-18T15:58:11.321Z,94118.64
2019-05-18T16:00:39.972Z,94120.70
2019-05-18T16:03:08.537Z,94127.86
2019-05-18T16:05:37.168Z,94117.80
2019-05-18T16:08:05.828Z,94124.85
2019-05-18T16:10:34.464Z,94122.86
2019-05-18T16:13:03.119Z,94125.06
2019-05-18T16:15:31.793Z,94128.91
2019-05-18T16:18:00.345Z,94135.13
2019-05-18T16:20:28.980Z,94125.55
2019-05-18T16:22:57.576Z,94123.39
2019-05-18T16:25:26.208Z,94119.69
2019-05-18T16:27:54.839Z,94126.33
2019-05-18T16:30:23.505Z,94127.77
2019-05-18T16:32:52.147Z,94127.59
2019-05-18T16:35:20.875Z,94127.41
2019-05-18T16:37:49.599Z,94126.07
2019-05-18T16:40:18.811Z,94122.68
2019-05-18T16:42:47.518Z,94127.20
2019-05-18T16:45:16.618Z,94128.90
2019-05-18T16:47:45.246Z,94136.31
2019-05-18T16:50:14.174Z,94135.95
2019-05-18T16:52:42.787Z,94135.41
2019-05-18T16:55:11.782Z,94132.41
2019-05-18T16:57:40.394Z,94139.16
2019-05-18T17:00:11.215Z,94137.69
2019-05-18T17:02:39.963Z,94120.80
2019-05-18T17:05:09.503Z,94137.51
2019-05-18T17:07:38.166Z,94130.98
2019-05-18T17:10:07.304Z,94129.05
2019-05-18T17:12:35.870Z,94132.50
2019-05-18T17:15:06.830Z,94130.73
2019-05-18T17:17:35.702Z,94129.63
2019-05-18T17:20:06.734Z,94127.13
2019-05-18T17:22:35.332Z,94126.56
2019-05-18T17:25:05.175Z,94129.36
2019-05-18T17:27:33.737Z,94130.66
2019-05-18T17:30:02.513Z,94133.08
2019-05-18T17:32:31.274Z,94133.25
2019-05-18T17:34:59.755Z,94135.84
2019-05-18T17:37:28.480Z,94140.50
2019-05-18T17:39:57.100Z,94140.13
2019-05-18T17:42:25.757Z,94145.52
2019-05-18T17:44:54.443Z,94150.99
2019-05-18T17:47:23.017Z,94150.47
2019-05-18T17:49:51.759Z,94154.23
2019-05-18T17:52:20.419Z,94154.14
2019-05-18T17:54:48.908Z,94155.57
2019-05-18T17:57:17.614Z,94145.38
2019-05-18T17:59:49.420Z,94143.91
2019-05-18T18:02:16.577Z,94145.95
2019-05-18T18:04:45.112Z,94155.30
2019-05-18T18:07:13.720Z,94157.76
2019-05-18T18:09:42.353Z,94160.84
2019-05-18T18:12:10.908Z,94156.82
2019-05-18T18:14:39.729Z,94167.62
2019-05-18T18:17:08.354Z,94169.94
2019-05-18T18:19:36.985Z,94168.02
2019-05-18T18:22:05.649Z,94177.89
2019-05-18T18:24:34.278Z,94183.33
2019-05-18T18:27:02.841Z,94187.13
2019-05-18T18:29:31.363Z,94193.91
2019-05-18T18:31:59.991Z,94188.98
2019-05-18T18:34:28.622Z,94187.20
2019-05-18T18:36:57.218Z,94195.33
2019-05-18T18:39:25.785Z,94186.48
2019-05-18T18:41:54.368Z,94191.08
2019-05-18T18:44:23.047Z,94185.45
2019-05-18T18:46:51.655Z,94197.27
2019-05-18T18:49:20.172Z,94199.61
2019-05-18T18:51:48.754Z,94202.81
2019-05-18T18:54:17.386Z,94206.48
2019-05-18T18:56:45.948Z,94206.70
2019-05-18T18:59:14.557Z,94215.16
2019-05-18T19:01:43.121Z,94215.80
2019-05-18T19:04:12.049Z,94213.22
2019-05-18T19:06:40.698Z,94215.80
2019-05-18T19:09:09.319Z,94219.20
2019-05-18T19:11:37.879Z,94222.86
2019-05-18T19:14:06.511Z,94213.86
2019-05-18T19:16:35.076Z,94218.24
2019-05-18T19:19:03.760Z,94211.84
2019-05-18T19:21:32.398Z,94225.73
2019-05-18T19:24:00.891Z,94224.98
2019-05-18T19:26:29.474Z,94223.16
2019-05-18T19:28:58.096Z,94222.32
2019-05-18T19:31:26.665Z,94225.16
2019-05-18T19:33:55.188Z,94225.92
2019-05-18T19:36:23.739Z,94227.85
2019-05-18T19:38:52.378Z,94227.12
2019-05-18T19:41:21.056Z,94226.17
2019-05-18T19:43:49.614Z,94232.77
2019-05-18T19:46:18.180Z,94230.44
2019-05-18T19:48:46.702Z,94227.22
2019-05-18T19:51:16.137Z,94229.65
2019-05-18T19:53:44.968Z,94226.06
2019-05-18T19:56:13.553Z,94222.70
2019-05-18T19:58:42.111Z,94218.51
2019-05-18T20:01:10.683Z,94220.04
2019-05-18T20:03:39.352Z,94214.69
2019-05-18T20:06:07.983Z,94202.13
2019-05-18T20:08:36.549Z,94200.17
2019-05-18T20:11:05.203Z,94205.95
2019-05-18T20:13:33.827Z,94213.70
2019-05-18T20:16:02.486Z,94219.62
2019-05-18T20:18:31.014Z,94226.02
2019-05-18T20:20:59.640Z,94231.83
2019-05-18T20:23:28.232Z,94237.23
2019-05-18T20:25:56.828Z,94240.36
2019-05-18T20:28:25.469Z,94240.63
2019-05-18T20:30:54.106Z,94235.23
2019-05-18T20:33:22.628Z,94237.28
2019-05-18T20:35:51.186Z,94238.37
2019-05-18T20:38:19.844Z,94240.98
2019-05-18T20:40:48.454Z,94247.55
2019-05-18T20:43:17.028Z,94256.73
2019-05-18T20:45:45.602Z,94266.27
2019-05-18T20:48:16.910Z,94270.00
2019-05-18T20:50:44.516Z,94267.28
2019-05-18T20:53:13.065Z,94275.01
2019-05-18T20:55:41.702Z,94271.22
2019-05-18T20:58:10.340Z,94265.77
2019-05-18T21:00:39.076Z,94262.08
2019-05-18T21:03:07.709Z,94261.48
2019-05-18T21:05:36.283Z,94264.63
2019-05-18T21:08:04.954Z,94267.45
2019-05-18T21:10:33.518Z,94261.02
2019-05-18T21:13:02.295Z,94258.42
2019-05-18T21:15:30.962Z,94254.16
2019-05-18T21:17:59.530Z,94257.39
2019-05-18T21:20:28.120Z,94256.41
2019-05-18T21:22:56.774Z,94261.15
2019-05-18T21:25:25.346Z,94264.05
2019-05-18T21:27:53.841Z,94255.44
2019-05-18T21:30:22.518Z,94257.23
2019-05-18T21:32:51.142Z,94263.75
2019-05-18T21:35:19.721Z,94268.70
2019-05-18T21:37:48.255Z,94267.91
2019-05-18T21:40:16.885Z,94256.70
2019-05-18T21:42:45.446Z,94259.42
2019-05-18T21:45:14.716Z,94260.39
2019-05-18T21:47:43.347Z,94254.80
2019-05-18T21:50:12.468Z,94256.06
2019-05-18T21:52:42.069Z,94251.91
2019-05-18T21:55:11.522Z,94255.77
2019-05-18T21:57:40.151Z,94254.28
2019-05-18T22:00:09.638Z,94256.54
2019-05-18T22:02:38.275Z,94253.57
2019-05-18T22:05:07.209Z,94252.31
2019-05-18T22:07:35.874Z,94245.55
2019-05-18T22:10:07.801Z,94250.69
2019-05-18T22:12:36.312Z,94251.84
2019-05-18T22:15:06.662Z,94248.36
2019-05-18T22:17:36.977Z,94263.45
2019-05-18T22:20:07.073Z,94262.86
2019-05-18T22:22:35.682Z,94263.91
2019-05-18T22:25:04.577Z,94264.38
2019-05-18T22:27:33.073Z,94266.01
2019-05-18T22:30:01.678Z,94263.23
2019-05-18T22:32:30.315Z,94263.80
2019-05-18T22:34:58.931Z,94267.78
2019-05-18T22:37:27.431Z,94277.44
2019-05-18T22:39:55.991Z,94266.11
2019-05-18T22:42:24.774Z,94255.85
2019-05-18T22:44:53.373Z,94262.44
2019-05-18T22:47:21.885Z,94258.28
2019-05-18T22:49:50.427Z,94256.90
2019-05-18T22:52:19.296Z,94247.88
2019-05-18T22:54:47.867Z,94256.99
2019-05-18T22:57:16.392Z,94260.31
2019-05-18T22:59:45.101Z,94258.01
2019-05-18T23:02:13.745Z,94260.89
2019-05-18T23:04:42.314Z,94259.05
2019-05-18T23:07:10.846Z,94258.65
2019-05-18T23:09:39.403Z,94258.59
2019-05-18T23:12:08.068Z,94264.88
2019-05-18T23:14:36.682Z,94262.41
2019-05-18T23:17:05.430Z,94269.48
2019-05-18T23:19:33.938Z,94262.00
2019-05-18T23:22:02.581Z,94255.17
2019-05-18T23:24:31.136Z,94255.84
2019-05-18T23:26:59.673Z,94262.16
2019-05-18T23:29:28.236Z,94257.81
2019-05-18T23:31:56.858Z,94259.68
2019-05-18T23:34:25.466Z,94266.63
2019-05-18T23:36:53.967Z,94267.30
2019-05-18T23:39:22.649Z,94262.55
2019-05-18T23:41:51.328Z,94264.44
2019-05-18T23:44:19.896Z,94267.25
2019-05-18T23:46:48.541Z,94272.98
2019-05-18T23:49:17.242Z,94270.58
2019-05-18T23:51:45.849Z,94266.48
2019-05-18T23:54:14.420Z,94269.27
2019-05-18T23:56:43.090Z,94274.47
2019-05-18T23:59:11.826Z,94275.25
